sensor_id;sensor_type;location;lat;lon;timestamp;P1;durP1;ratioP1;P2;durP2;ratioP2
5871;SDS011;2962;51.312;7.378;2022-09-03T00:00:36;0.70;;;0.70;;
5871;SDS011;2962;51.312;7.378;2022-09-03T00:03:15;2.00;;;1.03;;
5871;SDS011;2962;51.312;7.378;2022-09-03T00:08:41;1.40;;;0.97;;
5871;SDS011;2962;51.312;7.378;2022-09-03T00:11:17;0.73;;;0.73;;
5871;SDS011;2962;51.312;7.378;2022-09-03T00:16:43;2.00;;;1.03;;
5871;SDS011;2962;51.312;7.378;2022-09-03T00:19:09;0.57;;;0.57;;
5871;SDS011;2962;51.312;7.378;2022-09-03T00:21:44;1.10;;;1.10;;
5871;SDS011;2962;51.312;7.378;2022-09-03T00:24:13;0.73;;;0.60;;
5871;SDS011;2962;51.312;7.378;2022-09-03T00:26:43;1.27;;;1.00;;
5871;SDS011;2962;51.312;7.378;2022-09-03T00:29:16;1.20;;;1.20;;
5871;SDS011;2962;51.312;7.378;2022-09-03T00:31:52;2.23;;;0.90;;
5871;SDS011;2962;51.312;7.378;2022-09-03T00:36:55;2.90;;;0.83;;
5871;SDS011;2962;51.312;7.378;2022-09-03T00:39:22;1.87;;;0.93;;
5871;SDS011;2962;51.312;7.378;2022-09-03T00:44:53;1.40;;;0.83;;
5871;SDS011;2962;51.312;7.378;2022-09-03T00:47:50;1.10;;;1.00;;
5871;SDS011;2962;51.312;7.378;2022-09-03T00:50:34;2.73;;;0.77;;
5871;SDS011;2962;51.312;7.378;2022-09-03T01:01:17;0.67;;;0.67;;
5871;SDS011;2962;51.312;7.378;2022-09-03T01:03:49;0.93;;;0.70;;
5871;SDS011;2962;51.312;7.378;2022-09-03T01:06:30;1.17;;;0.70;;
5871;SDS011;2962;51.312;7.378;2022-09-03T01:12:28;1.00;;;1.00;;
5871;SDS011;2962;51.312;7.378;2022-09-03T01:15:09;0.77;;;0.73;;
5871;SDS011;2962;51.312;7.378;2022-09-03T01:28:52;1.47;;;0.93;;
5871;SDS011;2962;51.312;7.378;2022-09-03T01:31:36;0.83;;;0.83;;
5871;SDS011;2962;51.312;7.378;2022-09-03T01:36:58;1.07;;;1.07;;
5871;SDS011;2962;51.312;7.378;2022-09-03T01:39:42;1.33;;;0.70;;
5871;SDS011;2962;51.312;7.378;2022-09-03T01:53:59;2.13;;;0.77;;
5871;SDS011;2962;51.312;7.378;2022-09-03T01:59:29;0.73;;;0.73;;
5871;SDS011;2962;51.312;7.378;2022-09-03T02:02:09;0.60;;;0.60;;
5871;SDS011;2962;51.312;7.378;2022-09-03T02:07:34;0.70;;;0.70;;
5871;SDS011;2962;51.312;7.378;2022-09-03T02:10:04;1.23;;;0.83;;
5871;SDS011;2962;51.312;7.378;2022-09-03T02:12:32;1.60;;;0.90;;
5871;SDS011;2962;51.312;7.378;2022-09-03T02:14:59;0.80;;;0.80;;
5871;SDS011;2962;51.312;7.378;2022-09-03T02:17:28;0.77;;;0.70;;
5871;SDS011;2962;51.312;7.378;2022-09-03T02:19:54;0.80;;;0.80;;
5871;SDS011;2962;51.312;7.378;2022-09-03T02:22:20;1.50;;;0.67;;
5871;SDS011;2962;51.312;7.378;2022-09-03T02:24:45;0.70;;;0.70;;
5871;SDS011;2962;51.312;7.378;2022-09-03T02:27:10;1.17;;;0.53;;
5871;SDS011;2962;51.312;7.378;2022-09-03T02:29:36;0.87;;;0.70;;
5871;SDS011;2962;51.312;7.378;2022-09-03T02:32:01;0.63;;;0.63;;
5871;SDS011;2962;51.312;7.378;2022-09-03T02:34:26;0.50;;;0.50;;
5871;SDS011;2962;51.312;7.378;2022-09-03T02:36:52;1.50;;;1.00;;
5871;SDS011;2962;51.312;7.378;2022-09-03T02:39:18;1.23;;;0.90;;
5871;SDS011;2962;51.312;7.378;2022-09-03T02:41:44;0.57;;;0.57;;
5871;SDS011;2962;51.312;7.378;2022-09-03T02:44:23;0.90;;;0.90;;
5871;SDS011;2962;51.312;7.378;2022-09-03T02:46:58;5.97;;;0.70;;
5871;SDS011;2962;51.312;7.378;2022-09-03T02:49:25;1.13;;;0.70;;
5871;SDS011;2962;51.312;7.378;2022-09-03T02:51:56;1.10;;;1.10;;
5871;SDS011;2962;51.312;7.378;2022-09-03T02:54:30;0.70;;;0.70;;
5871;SDS011;2962;51.312;7.378;2022-09-03T02:56:57;0.67;;;0.67;;
5871;SDS011;2962;51.312;7.378;2022-09-03T02:59:23;3.07;;;0.87;;
5871;SDS011;2962;51.312;7.378;2022-09-03T03:01:52;0.90;;;0.90;;
5871;SDS011;2962;51.312;7.378;2022-09-03T03:04:17;1.03;;;0.70;;
5871;SDS011;2962;51.312;7.378;2022-09-03T03:06:42;1.10;;;0.87;;
5871;SDS011;2962;51.312;7.378;2022-09-03T03:09:08;0.70;;;0.70;;
5871;SDS011;2962;51.312;7.378;2022-09-03T03:11:33;0.77;;;0.77;;
5871;SDS011;2962;51.312;7.378;2022-09-03T03:14:00;0.60;;;0.60;;
5871;SDS011;2962;51.312;7.378;2022-09-03T03:16:26;0.60;;;0.60;;
5871;SDS011;2962;51.312;7.378;2022-09-03T03:18:51;1.23;;;0.60;;
5871;SDS011;2962;51.312;7.378;2022-09-03T03:21:17;0.60;;;0.60;;
5871;SDS011;2962;51.312;7.378;2022-09-03T03:23:42;0.70;;;0.70;;
5871;SDS011;2962;51.312;7.378;2022-09-03T03:26:09;1.27;;;1.27;;
5871;SDS011;2962;51.312;7.378;2022-09-03T03:28:37;1.60;;;0.90;;
5871;SDS011;2962;51.312;7.378;2022-09-03T03:33:32;3.23;;;0.77;;
5871;SDS011;2962;51.312;7.378;2022-09-03T03:35:57;0.80;;;0.80;;
5871;SDS011;2962;51.312;7.378;2022-09-03T03:38:23;0.80;;;0.80;;
5871;SDS011;2962;51.312;7.378;2022-09-03T03:40:48;1.13;;;0.80;;
5871;SDS011;2962;51.312;7.378;2022-09-03T03:43:13;1.27;;;0.70;;
5871;SDS011;2962;51.312;7.378;2022-09-03T03:45:39;1.47;;;1.00;;
5871;SDS011;2962;51.312;7.378;2022-09-03T03:48:04;3.07;;;0.57;;
5871;SDS011;2962;51.312;7.378;2022-09-03T03:50:29;3.93;;;0.80;;
5871;SDS011;2962;51.312;7.378;2022-09-03T03:52:57;0.83;;;0.83;;
5871;SDS011;2962;51.312;7.378;2022-09-03T03:55:24;2.40;;;0.87;;
5871;SDS011;2962;51.312;7.378;2022-09-03T03:57:49;0.90;;;0.90;;
5871;SDS011;2962;51.312;7.378;2022-09-03T04:00:15;0.80;;;0.80;;
5871;SDS011;2962;51.312;7.378;2022-09-03T04:02:40;1.00;;;1.00;;
5871;SDS011;2962;51.312;7.378;2022-09-03T04:05:06;1.43;;;0.60;;
5871;SDS011;2962;51.312;7.378;2022-09-03T04:07:31;0.93;;;0.93;;
5871;SDS011;2962;51.312;7.378;2022-09-03T04:09:56;5.60;;;1.00;;
5871;SDS011;2962;51.312;7.378;2022-09-03T04:12:22;0.80;;;0.80;;
5871;SDS011;2962;51.312;7.378;2022-09-03T04:14:47;1.60;;;0.70;;
5871;SDS011;2962;51.312;7.378;2022-09-03T04:17:12;0.50;;;0.50;;
5871;SDS011;2962;51.312;7.378;2022-09-03T04:19:37;0.57;;;0.57;;
5871;SDS011;2962;51.312;7.378;2022-09-03T04:22:03;0.83;;;0.80;;
5871;SDS011;2962;51.312;7.378;2022-09-03T04:24:28;1.60;;;0.80;;
5871;SDS011;2962;51.312;7.378;2022-09-03T04:26:53;0.70;;;0.70;;
5871;SDS011;2962;51.312;7.378;2022-09-03T04:29:19;0.80;;;0.80;;
5871;SDS011;2962;51.312;7.378;2022-09-03T04:31:46;0.70;;;0.70;;
5871;SDS011;2962;51.312;7.378;2022-09-03T04:34:31;2.30;;;0.53;;
5871;SDS011;2962;51.312;7.378;2022-09-03T04:36:56;0.83;;;0.73;;
5871;SDS011;2962;51.312;7.378;2022-09-03T04:39:24;0.80;;;0.80;;
5871;SDS011;2962;51.312;7.378;2022-09-03T04:41:50;1.93;;;0.70;;
5871;SDS011;2962;51.312;7.378;2022-09-03T04:44:15;3.77;;;1.00;;
5871;SDS011;2962;51.312;7.378;2022-09-03T04:46:40;0.67;;;0.67;;
5871;SDS011;2962;51.312;7.378;2022-09-03T04:49:05;2.00;;;0.70;;
5871;SDS011;2962;51.312;7.378;2022-09-03T04:51:33;0.90;;;0.90;;
5871;SDS011;2962;51.312;7.378;2022-09-03T04:54:01;0.80;;;0.80;;
5871;SDS011;2962;51.312;7.378;2022-09-03T04:56:28;0.80;;;0.80;;
5871;SDS011;2962;51.312;7.378;2022-09-03T04:59:00;1.77;;;0.70;;
5871;SDS011;2962;51.312;7.378;2022-09-03T05:01:28;0.70;;;0.70;;
5871;SDS011;2962;51.312;7.378;2022-09-03T05:03:55;0.80;;;0.80;;
5871;SDS011;2962;51.312;7.378;2022-09-03T05:06:22;3.50;;;0.83;;
5871;SDS011;2962;51.312;7.378;2022-09-03T05:08:49;3.40;;;0.90;;
5871;SDS011;2962;51.312;7.378;2022-09-03T05:11:15;0.53;;;0.53;;
5871;SDS011;2962;51.312;7.378;2022-09-03T05:13:40;0.70;;;0.70;;
5871;SDS011;2962;51.312;7.378;2022-09-03T05:16:07;0.70;;;0.50;;
5871;SDS011;2962;51.312;7.378;2022-09-03T05:18:34;0.70;;;0.70;;
5871;SDS011;2962;51.312;7.378;2022-09-03T05:21:01;1.30;;;0.80;;
5871;SDS011;2962;51.312;7.378;2022-09-03T05:23:31;2.30;;;0.87;;
5871;SDS011;2962;51.312;7.378;2022-09-03T05:26:01;2.10;;;1.17;;
5871;SDS011;2962;51.312;7.378;2022-09-03T05:28:29;1.43;;;0.80;;
5871;SDS011;2962;51.312;7.378;2022-09-03T05:31:04;0.70;;;0.60;;
5871;SDS011;2962;51.312;7.378;2022-09-03T05:33:35;0.60;;;0.60;;
5871;SDS011;2962;51.312;7.378;2022-09-03T05:36:06;0.67;;;0.67;;
5871;SDS011;2962;51.312;7.378;2022-09-03T05:38:33;0.70;;;0.70;;
5871;SDS011;2962;51.312;7.378;2022-09-03T05:40:58;1.47;;;0.77;;
5871;SDS011;2962;51.312;7.378;2022-09-03T05:43:25;0.60;;;0.60;;
5871;SDS011;2962;51.312;7.378;2022-09-03T05:45:51;0.90;;;0.77;;
5871;SDS011;2962;51.312;7.378;2022-09-03T05:48:16;2.63;;;1.17;;
5871;SDS011;2962;51.312;7.378;2022-09-03T05:50:41;2.17;;;0.83;;
5871;SDS011;2962;51.312;7.378;2022-09-03T05:53:06;0.60;;;0.60;;
5871;SDS011;2962;51.312;7.378;2022-09-03T05:55:32;0.60;;;0.60;;
5871;SDS011;2962;51.312;7.378;2022-09-03T05:57:57;0.80;;;0.60;;
5871;SDS011;2962;51.312;7.378;2022-09-03T06:00:23;1.47;;;0.50;;
5871;SDS011;2962;51.312;7.378;2022-09-03T06:02:49;1.90;;;0.77;;
5871;SDS011;2962;51.312;7.378;2022-09-03T06:05:18;0.83;;;0.83;;
5871;SDS011;2962;51.312;7.378;2022-09-03T06:07:44;0.90;;;0.90;;
5871;SDS011;2962;51.312;7.378;2022-09-03T06:10:13;0.80;;;0.80;;
5871;SDS011;2962;51.312;7.378;2022-09-03T06:12:41;3.33;;;0.87;;
5871;SDS011;2962;51.312;7.378;2022-09-03T06:15:13;0.83;;;0.83;;
5871;SDS011;2962;51.312;7.378;2022-09-03T06:17:40;2.97;;;0.80;;
5871;SDS011;2962;51.312;7.378;2022-09-03T06:20:05;1.00;;;0.53;;
5871;SDS011;2962;51.312;7.378;2022-09-03T06:22:31;1.03;;;0.63;;
5871;SDS011;2962;51.312;7.378;2022-09-03T06:24:56;0.53;;;0.43;;
5871;SDS011;2962;51.312;7.378;2022-09-03T06:27:21;0.70;;;0.70;;
5871;SDS011;2962;51.312;7.378;2022-09-03T06:29:46;0.70;;;0.70;;
5871;SDS011;2962;51.312;7.378;2022-09-03T06:32:12;0.70;;;0.70;;
5871;SDS011;2962;51.312;7.378;2022-09-03T06:34:38;1.17;;;0.80;;
5871;SDS011;2962;51.312;7.378;2022-09-03T06:37:04;2.10;;;0.73;;
5871;SDS011;2962;51.312;7.378;2022-09-03T06:39:29;3.47;;;0.90;;
5871;SDS011;2962;51.312;7.378;2022-09-03T06:41:54;1.60;;;0.90;;
5871;SDS011;2962;51.312;7.378;2022-09-03T06:44:19;0.70;;;0.70;;
5871;SDS011;2962;51.312;7.378;2022-09-03T06:46:45;0.80;;;0.80;;
5871;SDS011;2962;51.312;7.378;2022-09-03T06:49:12;3.80;;;0.73;;
5871;SDS011;2962;51.312;7.378;2022-09-03T06:51:38;0.83;;;0.83;;
5871;SDS011;2962;51.312;7.378;2022-09-03T06:54:04;5.97;;;0.83;;
5871;SDS011;2962;51.312;7.378;2022-09-03T06:56:32;1.47;;;0.93;;
5871;SDS011;2962;51.312;7.378;2022-09-03T06:58:58;0.77;;;0.77;;
5871;SDS011;2962;51.312;7.378;2022-09-03T07:01:28;0.80;;;0.80;;
5871;SDS011;2962;51.312;7.378;2022-09-03T07:03:59;0.60;;;0.60;;
5871;SDS011;2962;51.312;7.378;2022-09-03T07:06:29;7.43;;;1.73;;
5871;SDS011;2962;51.312;7.378;2022-09-03T07:08:57;2.40;;;1.20;;
5871;SDS011;2962;51.312;7.378;2022-09-03T07:11:25;1.13;;;1.10;;
5871;SDS011;2962;51.312;7.378;2022-09-03T07:13:53;0.77;;;0.77;;
5871;SDS011;2962;51.312;7.378;2022-09-03T07:18:49;1.10;;;1.10;;
5871;SDS011;2962;51.312;7.378;2022-09-03T07:21:18;2.50;;;0.80;;
5871;SDS011;2962;51.312;7.378;2022-09-03T07:23:48;1.17;;;1.07;;
5871;SDS011;2962;51.312;7.378;2022-09-03T07:26:25;0.80;;;0.80;;
5871;SDS011;2962;51.312;7.378;2022-09-03T07:28:53;2.87;;;1.10;;
5871;SDS011;2962;51.312;7.378;2022-09-03T07:31:20;1.53;;;0.70;;
5871;SDS011;2962;51.312;7.378;2022-09-03T07:33:49;1.43;;;1.20;;
5871;SDS011;2962;51.312;7.378;2022-09-03T07:36:15;1.07;;;0.70;;
5871;SDS011;2962;51.312;7.378;2022-09-03T07:38:42;2.33;;;0.70;;
5871;SDS011;2962;51.312;7.378;2022-09-03T07:41:09;0.93;;;0.93;;
5871;SDS011;2962;51.312;7.378;2022-09-03T07:43:36;0.80;;;0.80;;
5871;SDS011;2962;51.312;7.378;2022-09-03T07:46:07;1.10;;;1.10;;
5871;SDS011;2962;51.312;7.378;2022-09-03T07:48:39;1.97;;;0.97;;
5871;SDS011;2962;51.312;7.378;2022-09-03T07:51:05;1.80;;;1.03;;
5871;SDS011;2962;51.312;7.378;2022-09-03T07:53:31;1.27;;;1.27;;
5871;SDS011;2962;51.312;7.378;2022-09-03T07:56:01;1.17;;;0.60;;
5871;SDS011;2962;51.312;7.378;2022-09-03T07:58:28;3.60;;;0.80;;
5871;SDS011;2962;51.312;7.378;2022-09-03T08:00:54;2.00;;;1.00;;
5871;SDS011;2962;51.312;7.378;2022-09-03T08:03:21;1.33;;;0.87;;
5871;SDS011;2962;51.312;7.378;2022-09-03T08:05:46;0.87;;;0.87;;
5871;SDS011;2962;51.312;7.378;2022-09-03T08:08:11;0.90;;;0.90;;
5871;SDS011;2962;51.312;7.378;2022-09-03T08:10:38;0.80;;;0.80;;
5871;SDS011;2962;51.312;7.378;2022-09-03T08:13:04;0.77;;;0.77;;
5871;SDS011;2962;51.312;7.378;2022-09-03T08:15:30;1.17;;;0.97;;
5871;SDS011;2962;51.312;7.378;2022-09-03T08:17:56;1.37;;;1.07;;
5871;SDS011;2962;51.312;7.378;2022-09-03T08:20:21;3.47;;;1.80;;
5871;SDS011;2962;51.312;7.378;2022-09-03T08:22:47;1.63;;;0.80;;
5871;SDS011;2962;51.312;7.378;2022-09-03T08:25:12;6.13;;;1.00;;
5871;SDS011;2962;51.312;7.378;2022-09-03T08:27:38;0.80;;;0.80;;
5871;SDS011;2962;51.312;7.378;2022-09-03T08:30:03;2.30;;;2.17;;
5871;SDS011;2962;51.312;7.378;2022-09-03T08:32:31;1.20;;;0.80;;
5871;SDS011;2962;51.312;7.378;2022-09-03T08:34:58;5.50;;;1.20;;
5871;SDS011;2962;51.312;7.378;2022-09-03T08:37:24;3.03;;;0.80;;
5871;SDS011;2962;51.312;7.378;2022-09-03T08:39:51;0.80;;;0.80;;
5871;SDS011;2962;51.312;7.378;2022-09-03T08:42:18;0.70;;;0.70;;
5871;SDS011;2962;51.312;7.378;2022-09-03T08:44:52;0.97;;;0.77;;
5871;SDS011;2962;51.312;7.378;2022-09-03T08:47:22;1.93;;;0.90;;
5871;SDS011;2962;51.312;7.378;2022-09-03T08:55:26;0.90;;;0.90;;
5871;SDS011;2962;51.312;7.378;2022-09-03T09:06:33;1.10;;;1.10;;
5871;SDS011;2962;51.312;7.378;2022-09-03T09:22:39;2.00;;;1.37;;
5871;SDS011;2962;51.312;7.378;2022-09-03T09:25:10;2.93;;;1.13;;
5871;SDS011;2962;51.312;7.378;2022-09-03T09:27:47;1.07;;;0.93;;
5871;SDS011;2962;51.312;7.378;2022-09-03T09:30:16;3.40;;;1.10;;
5871;SDS011;2962;51.312;7.378;2022-09-03T09:32:43;1.00;;;1.00;;
5871;SDS011;2962;51.312;7.378;2022-09-03T09:35:09;1.10;;;1.00;;
5871;SDS011;2962;51.312;7.378;2022-09-03T09:37:45;4.10;;;1.13;;
5871;SDS011;2962;51.312;7.378;2022-09-03T09:40:26;1.23;;;1.23;;
5871;SDS011;2962;51.312;7.378;2022-09-03T09:45:34;2.67;;;1.10;;
5871;SDS011;2962;51.312;7.378;2022-09-03T09:48:05;1.20;;;1.20;;
5871;SDS011;2962;51.312;7.378;2022-09-03T09:50:34;1.43;;;1.07;;
5871;SDS011;2962;51.312;7.378;2022-09-03T09:53:04;1.63;;;0.97;;
5871;SDS011;2962;51.312;7.378;2022-09-03T09:55:51;1.20;;;1.20;;
5871;SDS011;2962;51.312;7.378;2022-09-03T09:58:19;0.90;;;0.90;;
5871;SDS011;2962;51.312;7.378;2022-09-03T10:03:21;1.40;;;1.40;;
5871;SDS011;2962;51.312;7.378;2022-09-03T10:05:55;0.90;;;0.90;;
5871;SDS011;2962;51.312;7.378;2022-09-03T10:08:45;1.37;;;1.37;;
5871;SDS011;2962;51.312;7.378;2022-09-03T10:11:11;1.43;;;1.33;;
5871;SDS011;2962;51.312;7.378;2022-09-03T10:13:42;1.23;;;0.93;;
5871;SDS011;2962;51.312;7.378;2022-09-03T10:16:19;3.23;;;1.20;;
5871;SDS011;2962;51.312;7.378;2022-09-03T10:26:58;1.13;;;0.93;;
5871;SDS011;2962;51.312;7.378;2022-09-03T10:29:23;1.60;;;0.90;;
5871;SDS011;2962;51.312;7.378;2022-09-03T10:42:58;1.67;;;1.60;;
5871;SDS011;2962;51.312;7.378;2022-09-03T10:45:40;1.67;;;1.57;;
5871;SDS011;2962;51.312;7.378;2022-09-03T10:50:57;1.10;;;1.10;;
5871;SDS011;2962;51.312;7.378;2022-09-03T10:53:44;1.00;;;1.00;;
5871;SDS011;2962;51.312;7.378;2022-09-03T10:59:02;1.30;;;1.20;;
5871;SDS011;2962;51.312;7.378;2022-09-03T11:01:46;1.30;;;1.30;;
5871;SDS011;2962;51.312;7.378;2022-09-03T11:07:03;3.43;;;1.30;;
5871;SDS011;2962;51.312;7.378;2022-09-03T11:09:47;1.07;;;1.07;;
5871;SDS011;2962;51.312;7.378;2022-09-03T11:12:22;1.25;;;1.15;;
5871;SDS011;2962;51.312;7.378;2022-09-03T11:14:52;1.27;;;1.10;;
5871;SDS011;2962;51.312;7.378;2022-09-03T11:17:25;2.93;;;1.40;;
5871;SDS011;2962;51.312;7.378;2022-09-03T11:19:55;1.00;;;1.00;;
5871;SDS011;2962;51.312;7.378;2022-09-03T11:22:28;3.67;;;1.53;;
5871;SDS011;2962;51.312;7.378;2022-09-03T11:24:55;1.47;;;1.00;;
5871;SDS011;2962;51.312;7.378;2022-09-03T11:27:30;1.10;;;1.10;;
5871;SDS011;2962;51.312;7.378;2022-09-03T11:32:44;1.03;;;1.03;;
5871;SDS011;2962;51.312;7.378;2022-09-03T11:35:24;1.47;;;1.27;;
5871;SDS011;2962;51.312;7.378;2022-09-03T11:40:19;1.00;;;1.00;;
5871;SDS011;2962;51.312;7.378;2022-09-03T11:42:45;1.33;;;0.90;;
5871;SDS011;2962;51.312;7.378;2022-09-03T11:47:43;1.63;;;1.57;;
5871;SDS011;2962;51.312;7.378;2022-09-03T11:50:19;6.30;;;1.40;;
5871;SDS011;2962;51.312;7.378;2022-09-03T11:52:49;1.97;;;1.87;;
5871;SDS011;2962;51.312;7.378;2022-09-03T11:55:30;2.67;;;1.80;;
5871;SDS011;2962;51.312;7.378;2022-09-03T11:57:58;1.50;;;1.50;;
5871;SDS011;2962;51.312;7.378;2022-09-03T12:00:44;3.50;;;1.70;;
5871;SDS011;2962;51.312;7.378;2022-09-03T12:03:11;4.17;;;1.80;;
5871;SDS011;2962;51.312;7.378;2022-09-03T12:08:26;2.30;;;1.40;;
5871;SDS011;2962;51.312;7.378;2022-09-03T12:11:25;1.43;;;1.40;;
5871;SDS011;2962;51.312;7.378;2022-09-03T12:16:38;2.50;;;2.10;;
5871;SDS011;2962;51.312;7.378;2022-09-03T12:22:00;1.53;;;1.53;;
5871;SDS011;2962;51.312;7.378;2022-09-03T12:24:29;1.93;;;1.73;;
5871;SDS011;2962;51.312;7.378;2022-09-03T12:26:57;2.63;;;1.27;;
5871;SDS011;2962;51.312;7.378;2022-09-03T12:29:25;1.67;;;1.67;;
5871;SDS011;2962;51.312;7.378;2022-09-03T12:31:51;1.30;;;1.30;;
5871;SDS011;2962;51.312;7.378;2022-09-03T12:34:20;2.17;;;2.07;;
5871;SDS011;2962;51.312;7.378;2022-09-03T12:36:49;4.90;;;1.37;;
5871;SDS011;2962;51.312;7.378;2022-09-03T12:39:18;1.50;;;1.50;;
5871;SDS011;2962;51.312;7.378;2022-09-03T12:42:01;1.80;;;1.47;;
5871;SDS011;2962;51.312;7.378;2022-09-03T12:49:32;5.40;;;1.50;;
5871;SDS011;2962;51.312;7.378;2022-09-03T12:52:01;1.50;;;1.50;;
5871;SDS011;2962;51.312;7.378;2022-09-03T12:54:33;1.97;;;1.93;;
5871;SDS011;2962;51.312;7.378;2022-09-03T12:57:07;1.47;;;1.47;;
5871;SDS011;2962;51.312;7.378;2022-09-03T12:59:33;1.83;;;1.47;;
5871;SDS011;2962;51.312;7.378;2022-09-03T13:02:03;1.90;;;1.90;;
5871;SDS011;2962;51.312;7.378;2022-09-03T13:04:36;1.40;;;1.40;;
5871;SDS011;2962;51.312;7.378;2022-09-03T13:09:37;1.60;;;1.60;;
5871;SDS011;2962;51.312;7.378;2022-09-03T13:12:05;1.57;;;1.57;;
5871;SDS011;2962;51.312;7.378;2022-09-03T13:14:41;1.73;;;1.73;;
5871;SDS011;2962;51.312;7.378;2022-09-03T13:17:10;1.80;;;1.80;;
5871;SDS011;2962;51.312;7.378;2022-09-03T13:22:38;1.67;;;1.57;;
5871;SDS011;2962;51.312;7.378;2022-09-03T13:25:26;1.30;;;1.30;;
5871;SDS011;2962;51.312;7.378;2022-09-03T13:30:56;1.60;;;1.60;;
5871;SDS011;2962;51.312;7.378;2022-09-03T13:33:30;2.40;;;1.90;;
5871;SDS011;2962;51.312;7.378;2022-09-03T13:38:26;2.30;;;1.60;;
5871;SDS011;2962;51.312;7.378;2022-09-03T13:41:49;1.90;;;1.20;;
5871;SDS011;2962;51.312;7.378;2022-09-03T13:47:00;1.80;;;1.70;;
5871;SDS011;2962;51.312;7.378;2022-09-03T13:49:38;3.20;;;1.67;;
5871;SDS011;2962;51.312;7.378;2022-09-03T13:52:30;1.80;;;1.70;;
5871;SDS011;2962;51.312;7.378;2022-09-03T13:55:20;2.10;;;2.00;;
5871;SDS011;2962;51.312;7.378;2022-09-03T13:57:52;1.70;;;1.70;;
5871;SDS011;2962;51.312;7.378;2022-09-03T14:00:42;1.63;;;1.50;;
5871;SDS011;2962;51.312;7.378;2022-09-03T14:03:31;1.70;;;1.70;;
5871;SDS011;2962;51.312;7.378;2022-09-03T14:06:39;1.63;;;1.63;;
5871;SDS011;2962;51.312;7.378;2022-09-03T14:15:19;1.80;;;1.70;;
5871;SDS011;2962;51.312;7.378;2022-09-03T14:17:58;1.60;;;1.50;;
5871;SDS011;2962;51.312;7.378;2022-09-03T14:20:48;1.43;;;1.43;;
5871;SDS011;2962;51.312;7.378;2022-09-03T14:23:39;1.53;;;1.40;;
5871;SDS011;2962;51.312;7.378;2022-09-03T14:26:05;1.83;;;1.67;;
5871;SDS011;2962;51.312;7.378;2022-09-03T14:31:04;3.00;;;1.53;;
5871;SDS011;2962;51.312;7.378;2022-09-03T14:33:45;1.73;;;1.63;;
5871;SDS011;2962;51.312;7.378;2022-09-03T14:36:48;1.37;;;1.37;;
5871;SDS011;2962;51.312;7.378;2022-09-03T14:39:37;1.43;;;1.33;;
5871;SDS011;2962;51.312;7.378;2022-09-03T14:48:02;1.43;;;1.33;;
5871;SDS011;2962;51.312;7.378;2022-09-03T14:50:44;1.40;;;1.40;;
5871;SDS011;2962;51.312;7.378;2022-09-03T14:53:30;1.70;;;1.70;;
5871;SDS011;2962;51.312;7.378;2022-09-03T15:01:47;1.13;;;1.13;;
5871;SDS011;2962;51.312;7.378;2022-09-03T15:07:29;1.37;;;1.37;;
5871;SDS011;2962;51.312;7.378;2022-09-03T15:10:14;1.20;;;1.20;;
5871;SDS011;2962;51.312;7.378;2022-09-03T15:12:57;1.90;;;1.40;;
5871;SDS011;2962;51.312;7.378;2022-09-03T15:15:41;1.03;;;1.03;;
5871;SDS011;2962;51.312;7.378;2022-09-03T15:23:52;1.40;;;1.30;;
5871;SDS011;2962;51.312;7.378;2022-09-03T15:29:41;1.33;;;1.33;;
5871;SDS011;2962;51.312;7.378;2022-09-03T15:32:37;1.47;;;1.40;;
5871;SDS011;2962;51.312;7.378;2022-09-03T15:38:28;1.30;;;1.30;;
5871;SDS011;2962;51.312;7.378;2022-09-03T15:41:09;1.40;;;1.40;;
5871;SDS011;2962;51.312;7.378;2022-09-03T15:43:47;1.50;;;1.40;;
5871;SDS011;2962;51.312;7.378;2022-09-03T15:46:29;1.83;;;1.73;;
5871;SDS011;2962;51.312;7.378;2022-09-03T15:49:02;1.60;;;1.60;;
5871;SDS011;2962;51.312;7.378;2022-09-03T15:57:06;1.20;;;1.20;;
5871;SDS011;2962;51.312;7.378;2022-09-03T16:02:33;1.93;;;1.83;;
5871;SDS011;2962;51.312;7.378;2022-09-03T16:05:07;1.90;;;1.90;;
5871;SDS011;2962;51.312;7.378;2022-09-03T16:10:35;1.60;;;1.50;;
5871;SDS011;2962;51.312;7.378;2022-09-03T16:13:21;1.60;;;1.60;;
5871;SDS011;2962;51.312;7.378;2022-09-03T16:15:57;1.40;;;1.40;;
5871;SDS011;2962;51.312;7.378;2022-09-03T16:18:27;1.47;;;1.47;;
5871;SDS011;2962;51.312;7.378;2022-09-03T16:23:52;1.00;;;1.00;;
5871;SDS011;2962;51.312;7.378;2022-09-03T16:26:30;2.60;;;1.77;;
5871;SDS011;2962;51.312;7.378;2022-09-03T16:29:07;1.30;;;1.30;;
5871;SDS011;2962;51.312;7.378;2022-09-03T16:34:48;1.63;;;1.63;;
5871;SDS011;2962;51.312;7.378;2022-09-03T16:37:33;1.60;;;1.60;;
5871;SDS011;2962;51.312;7.378;2022-09-03T16:40:11;3.70;;;1.70;;
5871;SDS011;2962;51.312;7.378;2022-09-03T16:51:09;4.47;;;4.10;;
5871;SDS011;2962;51.312;7.378;2022-09-03T16:57:00;1.60;;;1.60;;
5871;SDS011;2962;51.312;7.378;2022-09-03T17:05:52;3.47;;;3.30;;
5871;SDS011;2962;51.312;7.378;2022-09-03T17:16:41;3.93;;;3.60;;
5871;SDS011;2962;51.312;7.378;2022-09-03T17:22:19;1.93;;;1.83;;
5871;SDS011;2962;51.312;7.378;2022-09-03T17:24:57;1.50;;;1.47;;
5871;SDS011;2962;51.312;7.378;2022-09-03T17:30:27;2.17;;;2.07;;
5871;SDS011;2962;51.312;7.378;2022-09-03T17:33:13;1.97;;;1.87;;
5871;SDS011;2962;51.312;7.378;2022-09-03T17:36:13;1.30;;;1.30;;
5871;SDS011;2962;51.312;7.378;2022-09-03T17:41:56;1.80;;;1.60;;
5871;SDS011;2962;51.312;7.378;2022-09-03T17:52:40;1.40;;;1.40;;
5871;SDS011;2962;51.312;7.378;2022-09-03T17:55:14;1.50;;;1.40;;
5871;SDS011;2962;51.312;7.378;2022-09-03T17:57:47;0.90;;;0.90;;
5871;SDS011;2962;51.312;7.378;2022-09-03T18:00:21;1.13;;;1.13;;
5871;SDS011;2962;51.312;7.378;2022-09-03T18:03:12;1.60;;;1.30;;
5871;SDS011;2962;51.312;7.378;2022-09-03T18:05:47;1.27;;;1.27;;
5871;SDS011;2962;51.312;7.378;2022-09-03T18:08:23;1.27;;;1.23;;
5871;SDS011;2962;51.312;7.378;2022-09-03T18:11:05;0.93;;;0.93;;
5871;SDS011;2962;51.312;7.378;2022-09-03T18:13:40;1.63;;;1.27;;
5871;SDS011;2962;51.312;7.378;2022-09-03T18:16:23;2.10;;;1.70;;
5871;SDS011;2962;51.312;7.378;2022-09-03T18:19:07;1.40;;;1.40;;
5871;SDS011;2962;51.312;7.378;2022-09-03T18:21:43;1.60;;;1.60;;
5871;SDS011;2962;51.312;7.378;2022-09-03T18:24:43;1.53;;;1.53;;
5871;SDS011;2962;51.312;7.378;2022-09-03T18:27:48;1.83;;;1.83;;
5871;SDS011;2962;51.312;7.378;2022-09-03T18:30:36;1.90;;;1.80;;
5871;SDS011;2962;51.312;7.378;2022-09-03T18:33:23;3.60;;;2.40;;
5871;SDS011;2962;51.312;7.378;2022-09-03T18:36:07;2.60;;;2.40;;
5871;SDS011;2962;51.312;7.378;2022-09-03T18:38:52;2.40;;;2.30;;
5871;SDS011;2962;51.312;7.378;2022-09-03T18:41:47;2.20;;;2.17;;
5871;SDS011;2962;51.312;7.378;2022-09-03T18:47:55;1.20;;;1.10;;
5871;SDS011;2962;51.312;7.378;2022-09-03T18:53:50;3.77;;;1.20;;
5871;SDS011;2962;51.312;7.378;2022-09-03T18:56:56;1.07;;;1.07;;
5871;SDS011;2962;51.312;7.378;2022-09-03T18:59:56;1.80;;;1.13;;
5871;SDS011;2962;51.312;7.378;2022-09-03T19:03:01;2.63;;;1.33;;
5871;SDS011;2962;51.312;7.378;2022-09-03T19:11:57;1.43;;;1.43;;
5871;SDS011;2962;51.312;7.378;2022-09-03T19:14:52;1.30;;;1.20;;
5871;SDS011;2962;51.312;7.378;2022-09-03T19:18:06;2.40;;;1.40;;
5871;SDS011;2962;51.312;7.378;2022-09-03T19:24:25;1.13;;;1.13;;
5871;SDS011;2962;51.312;7.378;2022-09-03T19:27:28;1.63;;;1.53;;
5871;SDS011;2962;51.312;7.378;2022-09-03T19:30:25;1.17;;;1.17;;
5871;SDS011;2962;51.312;7.378;2022-09-03T19:33:14;1.23;;;1.23;;
5871;SDS011;2962;51.312;7.378;2022-09-03T19:36:03;2.33;;;1.50;;
5871;SDS011;2962;51.312;7.378;2022-09-03T19:45:26;1.30;;;1.30;;
5871;SDS011;2962;51.312;7.378;2022-09-03T19:48:39;2.77;;;1.33;;
5871;SDS011;2962;51.312;7.378;2022-09-03T19:51:52;1.27;;;1.27;;
5871;SDS011;2962;51.312;7.378;2022-09-03T19:54:47;1.40;;;1.40;;
5871;SDS011;2962;51.312;7.378;2022-09-03T19:57:35;1.40;;;1.30;;
5871;SDS011;2962;51.312;7.378;2022-09-03T20:00:19;1.23;;;1.23;;
5871;SDS011;2962;51.312;7.378;2022-09-03T20:03:03;3.33;;;1.20;;
5871;SDS011;2962;51.312;7.378;2022-09-03T20:05:48;1.03;;;1.03;;
5871;SDS011;2962;51.312;7.378;2022-09-03T20:08:34;1.33;;;1.23;;
5871;SDS011;2962;51.312;7.378;2022-09-03T20:11:19;1.03;;;1.03;;
5871;SDS011;2962;51.312;7.378;2022-09-03T20:13:47;0.97;;;0.97;;
5871;SDS011;2962;51.312;7.378;2022-09-03T20:16:36;1.17;;;1.10;;
5871;SDS011;2962;51.312;7.378;2022-09-03T20:19:11;1.50;;;1.10;;
5871;SDS011;2962;51.312;7.378;2022-09-03T20:27:42;0.83;;;0.83;;
5871;SDS011;2962;51.312;7.378;2022-09-03T20:30:20;1.07;;;1.07;;
5871;SDS011;2962;51.312;7.378;2022-09-03T20:41:21;1.07;;;1.07;;